Time;durP1;ratioP1;P1;durP2;ratioP2;P2;SDS_P1;SDS_P2;PMS_P1;PMS_P2;Temp;Humidity;BMP_temperature;BMP_pressure;BME280_temperature;BME280_humidity;BME280_pressure;Samples;Min_cycle;Max_cycle;Signal;HPM_P1;HPM_P2
2023/01/09 00:02:10;;;;;;;0.10;0.10;;;7.70;99.90;;;;;;5044488;28;20021;-83
2023/01/09 00:04:35;;;;;;;0.90;0.90;;;7.70;99.90;;;;;;5044624;28;20114;-84
2023/01/09 00:07:01;;;;;;;1.33;1.30;;;7.60;99.90;;;;;;5044109;28;20037;-83
2023/01/09 00:09:27;;;;;;;1.67;1.58;;;7.40;99.90;;;;;;5046890;28;20053;-84
2023/01/09 00:11:55;;;;;;;3.03;2.38;;;7.10;99.90;;;;;;5043143;28;20028;-83
2023/01/09 00:14:24;;;;;;;1.30;1.17;;;7.00;99.90;;;;;;5047877;28;20045;-83
2023/01/09 00:16:52;;;;;;;0.82;0.82;;;6.90;99.90;;;;;;5048747;28;20029;-84
2023/01/09 00:19:18;;;;;;;2.53;1.95;;;6.80;99.90;;;;;;5045120;28;20025;-84
2023/01/09 00:21:44;;;;;;;2.90;2.05;;;6.80;99.90;;;;;;5054371;28;20518;-82
2023/01/09 00:24:10;;;;;;;4.93;2.72;;;6.70;99.90;;;;;;5050155;28;20051;-84
2023/01/09 00:26:35;;;;;;;1.50;1.17;;;6.70;99.90;;;;;;5040467;28;20099;-83
2023/01/09 00:29:01;;;;;;;2.90;1.75;;;6.60;99.90;;;;;;5043354;28;20033;-84
2023/01/09 00:31:27;;;;;;;0.63;0.63;;;6.60;99.90;;;;;;5043294;28;20033;-83
2023/01/09 00:33:59;;;;;;;3.10;1.63;;;6.60;99.90;;;;;;5044354;28;20525;-85
2023/01/09 00:36:25;;;;;;;1.13;1.08;;;6.60;99.90;;;;;;5040183;28;20032;-83
2023/01/09 00:38:51;;;;;;;0.77;0.77;;;6.60;99.90;;;;;;5041790;28;20619;-84
2023/01/09 00:41:24;;;;;;;0.35;0.35;;;6.70;99.90;;;;;;5046018;28;20025;-85
2023/01/09 00:43:54;;;;;;;13.15;0.95;;;6.80;99.90;;;;;;5043335;28;20032;-84
2023/01/09 00:46:29;;;;;;;0.47;0.47;;;6.90;99.90;;;;;;5046222;28;20074;-84
2023/01/09 00:48:55;;;;;;;2.65;1.10;;;7.00;99.90;;;;;;5055158;28;20032;-85
2023/01/09 00:51:20;;;;;;;0.10;0.10;;;7.00;99.90;;;;;;5041648;28;20048;-87
2023/01/09 00:53:48;;;;;;;0.75;0.63;;;7.10;99.90;;;;;;5061486;28;20039;-86
2023/01/09 00:56:17;;;;;;;0.28;0.28;;;7.10;99.90;;;;;;5045889;28;20029;-85
2023/01/09 00:58:43;;;;;;;2.28;0.68;;;7.10;99.90;;;;;;5060288;28;20028;-85
2023/01/09 01:01:09;;;;;;;0.28;0.28;;;7.10;99.90;;;;;;5045399;28;20041;-85
2023/01/09 01:03:34;;;;;;;0.73;0.73;;;7.30;99.90;;;;;;5042804;28;20758;-84
2023/01/09 01:08:45;;;;;;;0.28;0.25;;;7.40;99.90;;;;;;5046865;28;20059;-83
2023/01/09 01:11:11;;;;;;;0.37;0.37;;;7.50;99.90;;;;;;5043230;28;20029;-84
2023/01/09 01:13:39;;;;;;;0.50;0.50;;;7.40;99.90;;;;;;5042582;28;20271;-84
2023/01/09 01:16:10;;;;;;;0.10;0.10;;;7.50;99.90;;;;;;5042923;28;20072;-84
2023/01/09 01:18:36;;;;;;;0.88;0.88;;;7.50;99.90;;;;;;5043306;28;20029;-84
2023/01/09 01:21:06;;;;;;;0.10;0.10;;;7.40;99.90;;;;;;5042298;28;20078;-86
2023/01/09 01:23:32;;;;;;;0.63;0.63;;;7.50;99.90;;;;;;5042445;28;20039;-85
2023/01/09 01:26:06;;;;;;;2.42;0.93;;;7.50;99.90;;;;;;5042076;28;20025;-85
2023/01/09 01:28:32;;;;;;;0.43;0.43;;;7.30;99.90;;;;;;5042601;28;20025;-84
2023/01/09 01:30:58;;;;;;;0.20;0.20;;;7.10;99.90;;;;;;5042697;28;20024;-82
2023/01/09 01:33:24;;;;;;;0.10;0.10;;;7.10;99.90;;;;;;5042697;28;20060;-84
2023/01/09 01:35:49;;;;;;;0.57;0.57;;;7.10;99.90;;;;;;5042519;28;20594;-83
2023/01/09 01:38:15;;;;;;;0.13;0.13;;;7.00;99.90;;;;;;5033177;28;20762;-83
2023/01/09 01:40:41;;;;;;;0.52;0.52;;;7.00;99.90;;;;;;5043055;28;20036;-85
2023/01/09 01:43:11;;;;;;;0.28;0.28;;;6.80;99.90;;;;;;5043460;28;20078;-83
2023/01/09 01:45:39;;;;;;;0.10;0.10;;;6.60;99.90;;;;;;5043235;28;20051;-83
2023/01/09 01:48:18;;;;;;;0.10;0.10;;;6.50;99.90;;;;;;5042037;28;20013;-83
2023/01/09 01:50:49;;;;;;;0.10;0.10;;;6.40;99.90;;;;;;5037286;28;20033;-83
2023/01/09 01:53:33;;;;;;;0.20;0.20;;;6.40;99.90;;;;;;5042150;28;20021;-82
2023/01/09 01:56:11;;;;;;;0.60;0.60;;;6.30;99.90;;;;;;5039226;28;20033;-84
2023/01/09 01:58:47;;;;;;;0.20;0.20;;;6.30;99.90;;;;;;5041770;28;20104;-83
2023/01/09 02:01:14;;;;;;;0.10;0.10;;;6.30;99.90;;;;;;5041335;28;20064;-83
2023/01/09 02:03:41;;;;;;;0.57;0.57;;;6.30;99.90;;;;;;5040204;28;20551;-83
2023/01/09 02:06:07;;;;;;;;;;;6.40;99.90;;;;;;5041745;28;20121;-83
2023/01/09 02:08:33;;;;;;;0.20;0.20;;;6.40;99.90;;;;;;5041290;28;20657;-83
2023/01/09 02:11:00;;;;;;;0.32;0.32;;;6.60;99.90;;;;;;5041120;28;20033;-83
2023/01/09 02:13:26;;;;;;;0.25;0.25;;;6.80;99.90;;;;;;5040960;28;20484;-82
2023/01/09 02:16:04;;;;;;;0.22;0.22;;;6.90;99.90;;;;;;5040451;28;20094;-83
2023/01/09 02:18:40;;;;;;;1.55;1.10;;;7.00;99.90;;;;;;5041557;28;20047;-83
2023/01/09 02:21:19;;;;;;;0.20;0.20;;;7.00;99.90;;;;;;5041732;28;20430;-83
2023/01/09 02:24:09;;;;;;;0.30;0.30;;;6.90;99.90;;;;;;5041787;28;20477;-83
2023/01/09 02:26:54;;;;;;;0.10;0.10;;;6.90;99.90;;;;;;5042934;28;20091;-83
2023/01/09 02:29:34;;;;;;;0.32;0.32;;;7.00;99.90;;;;;;5042024;28;20029;-84
2023/01/09 02:32:17;;;;;;;0.35;0.35;;;7.00;99.90;;;;;;5033659;28;20195;-83
2023/01/09 02:35:15;;;;;;;0.10;0.10;;;7.00;99.90;;;;;;5041484;28;20051;-83
2023/01/09 02:38:14;;;;;;;0.32;0.32;;;7.00;99.90;;;;;;5043012;28;20495;-85
2023/01/09 02:41:21;;;;;;;0.20;0.20;;;7.00;99.90;;;;;;5042955;28;20059;-84
2023/01/09 02:43:47;;;;;;;0.10;0.10;;;7.00;99.90;;;;;;5025664;28;20052;-82
2023/01/09 02:46:21;;;;;;;0.10;0.10;;;7.00;99.90;;;;;;5040326;28;20029;-83
2023/01/09 02:48:51;;;;;;;0.75;0.75;;;7.00;99.90;;;;;;5043332;28;20029;-83
2023/01/09 02:51:34;;;;;;;5.47;1.25;;;6.90;99.90;;;;;;5046114;28;20078;-83
2023/01/09 02:54:19;;;;;;;0.13;0.13;;;6.80;99.90;;;;;;5041908;28;20040;-83
2023/01/09 02:57:02;;;;;;;0.15;0.15;;;6.90;99.90;;;;;;5040666;28;20017;-84
2023/01/09 02:59:55;;;;;;;0.20;0.20;;;6.80;99.90;;;;;;5039160;28;20033;-83
2023/01/09 03:02:39;;;;;;;0.10;0.10;;;6.70;99.90;;;;;;5042433;28;20040;-84
2023/01/09 03:05:11;;;;;;;0.20;0.20;;;6.70;99.90;;;;;;5047068;28;20540;-83
2023/01/09 03:07:47;;;;;;;0.25;0.25;;;6.90;99.90;;;;;;5049871;28;20107;-84
2023/01/09 03:10:25;;;;;;;0.73;0.73;;;6.90;99.90;;;;;;5058065;28;20655;-83
2023/01/09 03:12:53;;;;;;;0.73;0.73;;;6.90;99.90;;;;;;5046887;28;20041;-83
2023/01/09 03:15:23;;;;;;;0.70;0.63;;;6.70;99.90;;;;;;5047470;28;20707;-83
2023/01/09 03:17:50;;;;;;;0.30;0.30;;;6.60;99.90;;;;;;5044831;28;20020;-83
2023/01/09 03:20:21;;;;;;;0.20;0.20;;;6.50;99.90;;;;;;5039512;28;20593;-83
2023/01/09 03:22:53;;;;;;;0.10;0.10;;;6.60;99.90;;;;;;5043023;28;20041;-83
2023/01/09 03:25:20;;;;;;;0.70;0.57;;;6.70;99.90;;;;;;5047198;28;20039;-84
2023/01/09 03:27:45;;;;;;;0.20;0.20;;;6.70;99.90;;;;;;5042110;28;20040;-85
2023/01/09 03:30:11;;;;;;;0.10;0.10;;;6.70;99.90;;;;;;5043165;28;20616;-85
2023/01/09 03:32:37;;;;;;;0.30;0.30;;;6.40;99.90;;;;;;5045075;28;20424;-84
2023/01/09 03:35:03;;;;;;;0.10;0.10;;;6.30;99.90;;;;;;5045362;28;20033;-84
2023/01/09 03:37:29;;;;;;;0.10;0.10;;;6.30;99.90;;;;;;5031145;28;20032;-84
2023/01/09 03:39:54;;;;;;;0.10;0.10;;;6.20;99.90;;;;;;5045379;28;20056;-85
2023/01/09 03:42:20;;;;;;;16.05;0.88;;;6.20;99.90;;;;;;5047453;28;20025;-84
2023/01/09 03:44:46;;;;;;;6.18;0.70;;;6.20;99.90;;;;;;5042910;28;20083;-82
2023/01/09 03:47:11;;;;;;;0.10;0.10;;;6.30;99.90;;;;;;5045847;28;20115;-83
2023/01/09 03:49:37;;;;;;;0.10;0.10;;;6.10;99.90;;;;;;5044577;28;20050;-83
2023/01/09 03:52:03;;;;;;;0.30;0.30;;;6.10;99.90;;;;;;5043196;28;20053;-83
2023/01/09 03:54:29;;;;;;;0.10;0.10;;;6.20;99.90;;;;;;5043897;28;20048;-83
2023/01/09 03:56:54;;;;;;;0.88;0.82;;;6.20;99.90;;;;;;5043979;28;20060;-83
2023/01/09 03:59:20;;;;;;;0.65;0.65;;;6.10;99.90;;;;;;5043814;28;20036;-83
2023/01/09 04:01:45;;;;;;;1.05;0.32;;;6.20;99.90;;;;;;5043762;28;20033;-83
2023/01/09 04:04:11;;;;;;;0.13;0.13;;;6.10;99.90;;;;;;5044608;28;20807;-86
2023/01/09 04:06:37;;;;;;;1.13;0.57;;;5.90;99.90;;;;;;5047980;28;20468;-85
2023/01/09 04:09:03;;;;;;;2.75;0.47;;;5.90;99.90;;;;;;5047740;28;20512;-84
2023/01/09 04:11:29;;;;;;;0.20;0.20;;;6.00;99.90;;;;;;5043910;28;20029;-85
2023/01/09 04:13:54;;;;;;;2.60;1.58;;;6.00;99.90;;;;;;5045348;28;20041;-83
2023/01/09 04:16:20;;;;;;;0.10;0.10;;;6.00;99.90;;;;;;5047613;28;20032;-83
2023/01/09 04:18:46;;;;;;;1.67;0.82;;;5.90;99.90;;;;;;5043438;28;20025;-84
2023/01/09 04:21:12;;;;;;;0.10;0.10;;;5.80;99.90;;;;;;5043246;28;20076;-82
2023/01/09 04:23:37;;;;;;;4.05;1.75;;;5.80;99.90;;;;;;5043431;28;20051;-81
2023/01/09 04:26:03;;;;;;;0.10;0.10;;;5.80;99.90;;;;;;5046002;28;20136;-83
2023/01/09 04:28:29;;;;;;;0.10;0.10;;;6.00;99.90;;;;;;5040742;28;20037;-83
2023/01/09 04:30:54;;;;;;;0.10;0.10;;;6.00;99.90;;;;;;5040789;28;20025;-83
2023/01/09 04:33:20;;;;;;;0.30;0.30;;;6.00;99.90;;;;;;5042130;28;20111;-83
2023/01/09 04:35:46;;;;;;;0.13;0.13;;;6.20;99.90;;;;;;5042759;28;20036;-83
2023/01/09 04:38:12;;;;;;;0.13;0.13;;;6.30;99.90;;;;;;5043089;28;20032;-83
2023/01/09 04:40:38;;;;;;;0.55;0.55;;;6.30;99.90;;;;;;5043108;28;20036;-83
2023/01/09 04:43:04;;;;;;;0.10;0.10;;;6.10;99.90;;;;;;5042978;28;20029;-82
2023/01/09 04:45:29;;;;;;;0.90;0.90;;;5.90;99.90;;;;;;5043819;28;20256;-84
2023/01/09 04:47:55;;;;;;;0.10;0.10;;;5.80;99.90;;;;;;5043873;28;20477;-84
2023/01/09 04:50:21;;;;;;;0.10;0.10;;;5.80;99.90;;;;;;5041017;28;20880;-82
2023/01/09 04:52:46;;;;;;;0.13;0.13;;;5.80;99.90;;;;;;5042997;28;20028;-83
2023/01/09 04:55:12;;;;;;;0.65;0.63;;;5.80;99.90;;;;;;5042890;28;20032;-82
2023/01/09 04:57:38;;;;;;;0.10;0.10;;;5.80;99.90;;;;;;5041629;28;20036;-84
2023/01/09 05:00:08;;;;;;;0.10;0.10;;;5.70;99.90;;;;;;5041584;28;20028;-83
2023/01/09 05:02:35;;;;;;;0.95;0.63;;;5.80;99.90;;;;;;5024653;28;20059;-85
2023/01/09 05:05:01;;;;;;;0.17;0.17;;;6.00;99.90;;;;;;5046930;28;20017;-85
2023/01/09 05:07:27;;;;;;;0.20;0.20;;;6.20;99.90;;;;;;5040866;28;20036;-84
2023/01/09 05:09:52;;;;;;;0.45;0.45;;;6.20;99.90;;;;;;5044844;28;20038;-86
2023/01/09 05:12:18;;;;;;;0.13;0.13;;;6.30;99.90;;;;;;5040613;28;20083;-85
2023/01/09 05:14:44;;;;;;;1.00;0.60;;;6.20;99.90;;;;;;5043563;28;20075;-82
2023/01/09 05:17:09;;;;;;;1.00;0.85;;;6.30;99.90;;;;;;5039747;28;20036;-82
2023/01/09 05:19:35;;;;;;;0.38;0.38;;;6.20;99.90;;;;;;5042779;28;20185;-83
2023/01/09 05:22:01;;;;;;;0.57;0.57;;;6.30;99.90;;;;;;5042302;28;20489;-84
2023/01/09 05:24:26;;;;;;;1.58;1.48;;;6.30;99.90;;;;;;5043680;28;20083;-85
2023/01/09 05:26:52;;;;;;;0.10;0.10;;;6.30;99.90;;;;;;5058712;28;20028;-85
2023/01/09 05:29:18;;;;;;;0.60;0.30;;;6.40;99.90;;;;;;5053955;28;20476;-85
2023/01/09 05:31:44;;;;;;;0.90;0.75;;;6.30;99.90;;;;;;5055179;28;20038;-84
2023/01/09 05:34:09;;;;;;;0.10;0.10;;;6.30;99.90;;;;;;5048128;28;20043;-83
2023/01/09 05:36:35;;;;;;;0.35;0.35;;;6.20;99.90;;;;;;5040813;28;20029;-82
2023/01/09 05:39:01;;;;;;;0.63;0.63;;;6.20;99.90;;;;;;5035365;28;20099;-83
2023/01/09 05:41:27;;;;;;;0.10;0.10;;;6.20;99.90;;;;;;5042763;28;20536;-85
2023/01/09 05:43:53;;;;;;;0.73;0.38;;;6.10;99.90;;;;;;5042143;28;20032;-86
2023/01/09 05:46:19;;;;;;;0.63;0.63;;;6.20;99.90;;;;;;5043621;28;20078;-86
2023/01/09 05:48:44;;;;;;;2.60;1.50;;;6.10;99.90;;;;;;5043587;28;20591;-87
2023/01/09 05:51:11;;;;;;;0.47;0.45;;;6.20;99.90;;;;;;5043433;28;20473;-83
2023/01/09 05:53:36;;;;;;;3.15;1.45;;;6.10;99.90;;;;;;5044306;28;20028;-83
2023/01/09 05:56:02;;;;;;;7.10;0.75;;;6.00;99.90;;;;;;5051582;28;20064;-86
2023/01/09 05:58:28;;;;;;;0.15;0.15;;;6.10;99.90;;;;;;5037937;28;20059;-84
2023/01/09 06:00:54;;;;;;;1.20;1.10;;;6.10;99.90;;;;;;5035778;28;20519;-83
2023/01/09 06:03:19;;;;;;;2.33;1.02;;;6.10;99.90;;;;;;5034381;28;20032;-83
2023/01/09 06:05:45;;;;;;;0.30;0.30;;;6.20;99.90;;;;;;5042051;28;20044;-83
2023/01/09 06:08:11;;;;;;;0.85;0.68;;;6.10;99.90;;;;;;5043494;28;20135;-84
2023/01/09 06:10:36;;;;;;;0.38;0.38;;;6.20;99.90;;;;;;5068193;28;20032;-81
2023/01/09 06:13:02;;;;;;;1.77;0.75;;;6.20;99.90;;;;;;5041941;28;20119;-81
2023/01/09 06:15:28;;;;;;;0.60;0.60;;;6.20;99.90;;;;;;5041303;28;20090;-82
2023/01/09 06:17:54;;;;;;;4.78;0.93;;;6.20;99.90;;;;;;5037016;28;20028;-83
2023/01/09 06:20:19;;;;;;;1.08;1.02;;;6.10;99.90;;;;;;5042352;28;20036;-85
2023/01/09 06:22:45;;;;;;;1.35;1.15;;;6.20;99.90;;;;;;5037949;28;20052;-83
2023/01/09 06:25:11;;;;;;;3.42;1.77;;;6.20;99.90;;;;;;5026891;28;20037;-83
2023/01/09 06:27:37;;;;;;;0.20;0.20;;;6.20;99.90;;;;;;5032691;28;20107;-83
2023/01/09 06:30:03;;;;;;;0.20;0.20;;;6.20;99.90;;;;;;5031451;28;20552;-83
2023/01/09 06:32:29;;;;;;;0.50;0.50;;;6.10;99.90;;;;;;5031267;28;20021;-84
2023/01/09 06:34:55;;;;;;;0.25;0.25;;;5.90;99.90;;;;;;5043831;28;20103;-83
2023/01/09 06:37:20;;;;;;;0.20;0.20;;;5.90;99.90;;;;;;5045631;28;20044;-80
2023/01/09 06:39:46;;;;;;;3.25;0.57;;;6.00;99.90;;;;;;5056981;28;20542;-83
2023/01/09 06:42:12;;;;;;;0.10;0.10;;;6.00;99.90;;;;;;5044375;28;20040;-84
2023/01/09 06:44:37;;;;;;;0.98;0.80;;;5.90;99.90;;;;;;5044232;28;20753;-80
2023/01/09 06:47:03;;;;;;;1.67;0.70;;;5.80;99.90;;;;;;5044379;28;20104;-80
2023/01/09 06:49:29;;;;;;;0.68;0.68;;;5.80;99.90;;;;;;5044877;28;20049;-79
2023/01/09 06:51:55;;;;;;;0.77;0.77;;;5.90;99.90;;;;;;5042663;28;20086;-79
2023/01/09 06:54:20;;;;;;;20.58;2.00;;;5.90;99.90;;;;;;5036009;28;20059;-79
2023/01/09 06:56:46;;;;;;;0.70;0.70;;;5.90;99.90;;;;;;5045017;28;20039;-79
2023/01/09 06:59:12;;;;;;;0.20;0.20;;;5.90;99.90;;;;;;5046562;28;20083;-80
2023/01/09 07:01:38;;;;;;;0.32;0.32;;;5.90;99.90;;;;;;5045415;28;20367;-80
2023/01/09 07:04:05;;;;;;;0.30;0.30;;;6.00;99.90;;;;;;5046230;28;20021;-81
2023/01/09 07:06:31;;;;;;;0.10;0.10;;;5.90;99.90;;;;;;5042478;28;20029;-81
2023/01/09 07:08:57;;;;;;;0.10;0.10;;;5.80;99.90;;;;;;5045745;28;20063;-81
2023/01/09 07:11:23;;;;;;;0.13;0.13;;;5.70;99.90;;;;;;5044948;28;20370;-80
2023/01/09 07:13:49;;;;;;;0.68;0.68;;;5.70;99.90;;;;;;5044835;28;20033;-79
2023/01/09 07:16:14;;;;;;;0.22;0.22;;;5.80;99.90;;;;;;5045188;28;20403;-76
2023/01/09 07:18:40;;;;;;;1.25;1.25;;;6.00;99.90;;;;;;5039865;28;20049;-76
2023/01/09 07:21:07;;;;;;;2.83;2.58;;;6.00;99.90;;;;;;5046155;28;20713;-77
2023/01/09 07:23:32;;;;;;;1.05;0.98;;;6.10;99.90;;;;;;5042689;28;20029;-78
2023/01/09 07:25:59;;;;;;;5.47;1.38;;;6.10;99.90;;;;;;5041145;28;20420;-77
2023/01/09 07:28:25;;;;;;;0.38;0.38;;;6.10;99.90;;;;;;5039947;28;20369;-76
2023/01/09 07:30:50;;;;;;;3.30;1.42;;;6.10;99.90;;;;;;5045261;28;20036;-77
2023/01/09 07:33:16;;;;;;;0.35;0.35;;;6.10;99.90;;;;;;5045387;28;20029;-76
2023/01/09 07:35:42;;;;;;;3.28;2.83;;;6.20;99.90;;;;;;5044247;28;20048;-78
2023/01/09 07:38:08;;;;;;;1.13;1.02;;;6.00;99.90;;;;;;5045062;28;20029;-76
2023/01/09 07:40:34;;;;;;;2.55;1.88;;;6.00;99.90;;;;;;5043496;28;20024;-76
2023/01/09 07:43:00;;;;;;;0.63;0.60;;;6.00;99.90;;;;;;5037649;28;20026;-76
2023/01/09 07:45:25;;;;;;;0.93;0.93;;;5.90;99.90;;;;;;5041916;28;20032;-77
2023/01/09 07:47:51;;;;;;;23.23;2.42;;;6.00;99.90;;;;;;5034978;28;20025;-77
2023/01/09 07:50:18;;;;;;;2.53;1.83;;;5.90;99.90;;;;;;5042128;28;20851;-75
2023/01/09 07:52:45;;;;;;;2.03;1.30;;;5.90;99.90;;;;;;5044681;28;20116;-76
2023/01/09 07:55:11;;;;;;;1.00;1.00;;;6.00;99.90;;;;;;5044244;28;20558;-76
2023/01/09 07:57:37;;;;;;;1.13;1.08;;;6.00;99.90;;;;;;5044505;28;20108;-77
2023/01/09 08:00:05;;;;;;;2.15;2.00;;;5.90;99.90;;;;;;5044127;28;20786;-77
2023/01/09 08:02:31;;;;;;;0.75;0.75;;;5.80;99.90;;;;;;5044570;28;20040;-77
2023/01/09 08:04:57;;;;;;;2.67;1.98;;;5.90;99.90;;;;;;5044295;28;20470;-76
2023/01/09 08:07:23;;;;;;;3.42;1.35;;;5.80;99.90;;;;;;5041813;28;20025;-77
2023/01/09 08:09:48;;;;;;;3.17;2.67;;;5.80;99.90;;;;;;5045046;28;20112;-76
2023/01/09 08:12:14;;;;;;;4.25;1.05;;;5.80;99.90;;;;;;5044460;28;20029;-77
2023/01/09 08:14:40;;;;;;;0.75;0.60;;;5.90;99.90;;;;;;5043565;28;20037;-76
2023/01/09 08:17:05;;;;;;;0.80;0.80;;;6.10;99.90;;;;;;5044203;28;20078;-77
2023/01/09 08:19:31;;;;;;;2.10;1.00;;;6.00;99.90;;;;;;5047773;28;20025;-78
2023/01/09 08:21:57;;;;;;;0.68;0.68;;;6.10;99.90;;;;;;5043908;28;20083;-76
2023/01/09 08:24:22;;;;;;;1.85;1.65;;;6.00;99.90;;;;;;5043660;28;20086;-77
2023/01/09 08:26:48;;;;;;;0.10;0.10;;;6.00;99.90;;;;;;5041101;28;20039;-76
2023/01/09 08:29:14;;;;;;;3.72;1.58;;;5.90;99.90;;;;;;5038318;28;20103;-78
2023/01/09 08:31:40;;;;;;;2.63;1.17;;;5.90;99.90;;;;;;5043750;28;20401;-75
2023/01/09 08:34:05;;;;;;;0.22;0.22;;;6.00;99.90;;;;;;5043543;28;20454;-76
2023/01/09 08:36:31;;;;;;;0.13;0.13;;;6.20;99.90;;;;;;5039702;28;20037;-77
2023/01/09 08:38:57;;;;;;;0.65;0.65;;;6.40;99.90;;;;;;5037313;28;20027;-77
2023/01/09 08:47:06;;;;;;;0.65;0.32;;;7.00;99.90;;;;;;5043369;28;20067;-76
2023/01/09 08:49:33;;;;;;;0.35;0.30;;;7.20;99.90;;;;;;5043271;28;20526;-78
2023/01/09 08:51:59;;;;;;;0.85;0.85;;;7.60;99.90;;;;;;5039362;28;20136;-76
2023/01/09 08:54:24;;;;;;;0.30;0.30;;;7.60;99.90;;;;;;5043269;28;20434;-76
2023/01/09 08:56:50;;;;;;;0.28;0.28;;;7.60;99.90;;;;;;5043172;28;20029;-78
2023/01/09 08:59:16;;;;;;;0.10;0.10;;;7.70;99.90;;;;;;5042594;28;20039;-76
2023/01/09 09:01:41;;;;;;;0.95;0.95;;;7.80;99.90;;;;;;5043220;28;20033;-76
2023/01/09 09:04:07;;;;;;;0.32;0.32;;;7.90;99.90;;;;;;5043223;28;20029;-76
2023/01/09 09:06:33;;;;;;;0.75;0.75;;;7.70;99.90;;;;;;5041651;28;20024;-77
2023/01/09 09:09:03;;;;;;;0.50;0.50;;;7.80;99.90;;;;;;5042478;28;20092;-76
2023/01/09 09:11:29;;;;;;;0.80;0.80;;;7.30;99.90;;;;;;5042582;28;20025;-76
2023/01/09 09:13:56;;;;;;;0.50;0.50;;;6.90;99.90;;;;;;5042483;28;20068;-76
2023/01/09 09:16:23;;;;;;;0.55;0.55;;;6.50;99.90;;;;;;5042630;28;20140;-78
2023/01/09 09:18:48;;;;;;;;;;;6.40;99.90;;;;;;5042600;28;20555;-75
2023/01/09 09:21:14;;;;;;;0.10;0.10;;;6.30;99.90;;;;;;5046148;28;19920;-78
2023/01/09 09:23:40;;;;;;;0.10;0.10;;;6.40;99.90;;;;;;5042967;28;20044;-76
2023/01/09 09:26:05;;;;;;;0.85;0.52;;;6.50;99.90;;;;;;5042570;28;20049;-76
2023/01/09 09:28:31;;;;;;;0.13;0.13;;;6.40;99.90;;;;;;5034884;28;20033;-76
2023/01/09 09:30:57;;;;;;;0.17;0.17;;;6.40;99.90;;;;;;5042849;28;20036;-76
2023/01/09 09:33:22;;;;;;;0.50;0.50;;;6.50;99.90;;;;;;5042800;28;20033;-77
2023/01/09 09:35:48;;;;;;;1.30;1.13;;;6.60;99.90;;;;;;5042335;28;20041;-78
2023/01/09 09:38:14;;;;;;;0.30;0.30;;;6.50;99.90;;;;;;5042277;28;20048;-77
2023/01/09 09:44:42;;;;;;;0.22;0.22;;;6.80;99.90;;;;;;5039217;28;20136;-76
2023/01/09 09:47:37;;;;;;;0.57;0.57;;;7.00;99.90;;;;;;5042321;28;20028;-76
2023/01/09 09:50:30;;;;;;;0.70;0.70;;;6.90;99.90;;;;;;5030005;28;20026;-78
2023/01/09 09:53:09;;;;;;;0.63;0.63;;;7.20;99.90;;;;;;5042341;28;20036;-76
2023/01/09 09:55:38;;;;;;;0.22;0.22;;;7.20;99.90;;;;;;5041601;28;20033;-76
2023/01/09 09:58:20;;;;;;;1.92;1.17;;;7.10;99.90;;;;;;5041763;28;20029;-76
2023/01/09 10:00:47;;;;;;;3.25;1.95;;;7.30;99.90;;;;;;5039001;28;20025;-77
2023/01/09 10:03:31;;;;;;;0.30;0.30;;;7.10;99.90;;;;;;5042137;28;20029;-77
2023/01/09 10:06:01;;;;;;;0.30;0.30;;;7.20;99.90;;;;;;5041700;28;20025;-78
2023/01/09 10:08:40;;;;;;;0.80;0.80;;;7.20;99.90;;;;;;5042408;28;20053;-78
2023/01/09 10:11:15;;;;;;;0.57;0.38;;;7.10;99.90;;;;;;5041615;28;20032;-77
2023/01/09 10:16:48;;;;;;;0.10;0.10;;;7.00;99.90;;;;;;5038524;28;20561;-76
2023/01/09 10:19:42;;;;;;;0.20;0.20;;;7.00;99.90;;;;;;5045159;28;20020;-77
2023/01/09 10:22:35;;;;;;;0.20;0.20;;;6.90;99.90;;;;;;5032336;28;20082;-77
2023/01/09 10:25:17;;;;;;;0.40;0.40;;;6.70;99.90;;;;;;5040616;28;20031;-78
2023/01/09 10:27:54;;;;;;;1.00;0.98;;;6.70;99.90;;;;;;5032635;28;20030;-77
2023/01/09 10:30:49;;;;;;;0.88;0.47;;;6.60;99.90;;;;;;5030883;28;20029;-76
2023/01/09 10:33:30;;;;;;;0.40;0.40;;;6.70;99.90;;;;;;5041404;28;20029;-76
2023/01/09 10:35:56;;;;;;;0.25;0.25;;;6.60;99.90;;;;;;5041687;28;20083;-76
2023/01/09 10:38:27;;;;;;;0.10;0.10;;;6.60;99.90;;;;;;5041557;28;20060;-77
2023/01/09 10:41:03;;;;;;;0.30;0.30;;;6.60;99.90;;;;;;5041737;28;20047;-76
2023/01/09 10:43:40;;;;;;;0.55;0.55;;;6.70;99.90;;;;;;5032698;28;20024;-76
2023/01/09 10:46:18;;;;;;;0.20;0.20;;;6.80;99.90;;;;;;5041394;28;20102;-76
2023/01/09 10:48:51;;;;;;;1.75;1.38;;;6.60;99.90;;;;;;5041732;28;20025;-78
2023/01/09 10:51:24;;;;;;;0.10;0.10;;;6.60;99.90;;;;;;5036186;28;20104;-77
2023/01/09 10:53:53;;;;;;;0.50;0.50;;;6.70;99.90;;;;;;5041650;28;20025;-77
2023/01/09 10:56:32;;;;;;;1.02;1.02;;;6.70;99.90;;;;;;5041850;28;20407;-76
2023/01/09 10:58:58;;;;;;;0.32;0.20;;;6.80;99.90;;;;;;5039992;28;20036;-76
2023/01/09 11:01:27;;;;;;;5.68;1.63;;;6.90;99.90;;;;;;5041534;28;20025;-76
2023/01/09 11:03:53;;;;;;;0.73;0.73;;;6.80;99.90;;;;;;5041745;28;20029;-76
2023/01/09 11:06:24;;;;;;;0.17;0.17;;;7.00;99.90;;;;;;5041071;28;20032;-78
2023/01/09 11:08:55;;;;;;;0.35;0.35;;;7.10;99.90;;;;;;5041016;28;20044;-77
2023/01/09 11:11:37;;;;;;;0.10;0.10;;;7.20;99.90;;;;;;5035714;28;20025;-78
2023/01/09 11:14:17;;;;;;;0.30;0.30;;;7.00;99.90;;;;;;5040903;28;20450;-76
2023/01/09 11:16:57;;;;;;;0.40;0.40;;;6.90;99.90;;;;;;5041200;28;20022;-77
2023/01/09 11:19:24;;;;;;;0.75;0.73;;;6.80;99.90;;;;;;5043570;28;20550;-79
2023/01/09 11:22:04;;;;;;;0.20;0.20;;;6.90;99.90;;;;;;5041012;28;20346;-77
2023/01/09 11:24:30;;;;;;;0.68;0.68;;;6.80;99.90;;;;;;5044018;28;20029;-77
2023/01/09 11:27:22;;;;;;;0.40;0.40;;;6.80;99.90;;;;;;5031492;28;20099;-77
2023/01/09 11:30:13;;;;;;;0.25;0.25;;;6.90;99.90;;;;;;5043502;28;20467;-76
2023/01/09 11:32:39;;;;;;;0.10;0.10;;;6.90;99.90;;;;;;5044721;28;20025;-76
2023/01/09 11:35:14;;;;;;;0.10;0.10;;;6.90;99.90;;;;;;5044362;28;20533;-76
2023/01/09 11:37:40;;;;;;;0.10;0.10;;;6.80;99.90;;;;;;5044637;28;20031;-76
2023/01/09 11:40:17;;;;;;;0.32;0.32;;;6.80;99.90;;;;;;5044038;28;20021;-76
2023/01/09 11:43:03;;;;;;;0.10;0.10;;;6.90;99.90;;;;;;5043658;28;20044;-78
2023/01/09 11:45:34;;;;;;;0.47;0.40;;;6.80;99.90;;;;;;5044509;28;20025;-75
2023/01/09 11:48:03;;;;;;;0.17;0.17;;;6.60;99.90;;;;;;5044061;28;20098;-77
2023/01/09 11:50:30;;;;;;;0.10;0.10;;;6.60;99.90;;;;;;5040723;28;20026;-76
2023/01/09 11:53:15;;;;;;;;;;;6.80;99.90;;;;;;5044617;28;20025;-76
2023/01/09 11:55:42;;;;;;;0.45;0.38;;;6.70;99.90;;;;;;5044048;28;19916;-77
2023/01/09 11:58:11;;;;;;;;;;;6.60;99.90;;;;;;5044038;28;20040;-76
2023/01/09 12:00:57;;;;;;;0.52;0.52;;;6.60;99.90;;;;;;5044106;28;19908;-76
2023/01/09 12:03:34;;;;;;;0.30;0.30;;;6.70;99.90;;;;;;5039856;28;20017;-76
2023/01/09 12:06:08;;;;;;;0.32;0.32;;;6.70;99.90;;;;;;5042376;28;20025;-76
2023/01/09 12:08:40;;;;;;;1.00;0.73;;;6.70;99.90;;;;;;5056651;28;20053;-75
2023/01/09 12:11:22;;;;;;;0.10;0.10;;;7.00;99.90;;;;;;5044267;28;20029;-78
2023/01/09 12:13:51;;;;;;;0.10;0.10;;;7.20;99.90;;;;;;5047656;28;20067;-77
2023/01/09 12:16:34;;;;;;;0.68;0.68;;;7.10;99.90;;;;;;5043971;28;20032;-75
2023/01/09 12:19:21;;;;;;;0.10;0.10;;;7.10;99.90;;;;;;5039257;28;20035;-75
2023/01/09 12:22:11;;;;;;;1.13;0.77;;;7.10;99.90;;;;;;5044272;28;20035;-76
2023/01/09 12:24:43;;;;;;;0.10;0.10;;;7.00;99.90;;;;;;5043745;28;20027;-77
2023/01/09 12:27:28;;;;;;;0.35;0.35;;;6.90;99.90;;;;;;5036875;28;20056;-77
2023/01/09 12:30:33;;;;;;;2.10;0.90;;;7.00;99.90;;;;;;5042531;28;20734;-76
2023/01/09 12:33:36;;;;;;;0.52;0.52;;;7.70;99.90;;;;;;5043521;28;20013;-76
2023/01/09 12:36:08;;;;;;;0.55;0.52;;;7.80;99.90;;;;;;5043231;28;20090;-78
2023/01/09 12:38:47;;;;;;;0.10;0.10;;;7.70;99.90;;;;;;5043471;28;20033;-77
2023/01/09 12:41:33;;;;;;;1.38;0.93;;;7.50;99.90;;;;;;5043066;28;20136;-77
2023/01/09 12:44:18;;;;;;;0.90;0.28;;;7.50;99.90;;;;;;5042364;28;20043;-77
2023/01/09 12:47:15;;;;;;;0.25;0.25;;;7.20;99.90;;;;;;5043386;28;20032;-77
2023/01/09 12:50:18;;;;;;;0.20;0.20;;;7.50;99.90;;;;;;5039346;28;20028;-78
2023/01/09 12:53:01;;;;;;;0.52;0.52;;;7.40;99.90;;;;;;5043420;28;20055;-76
2023/01/09 12:55:33;;;;;;;0.35;0.35;;;7.50;99.90;;;;;;5040794;28;20566;-76
2023/01/09 12:58:06;;;;;;;0.82;0.57;;;7.40;99.90;;;;;;5042881;28;20021;-77
2023/01/09 13:00:40;;;;;;;0.73;0.73;;;7.50;99.90;;;;;;5043007;28;20063;-76
2023/01/09 13:03:28;;;;;;;0.47;0.47;;;7.30;99.90;;;;;;5042828;28;20032;-77
2023/01/09 13:05:56;;;;;;;0.10;0.10;;;7.20;99.90;;;;;;5041151;28;20503;-76
2023/01/09 13:08:51;;;;;;;0.10;0.10;;;7.00;99.90;;;;;;5041723;28;20056;-77
2023/01/09 13:11:27;;;;;;;0.10;0.10;;;7.00;99.90;;;;;;5025434;28;20064;-76
2023/01/09 13:14:11;;;;;;;1.42;1.05;;;6.90;99.90;;;;;;5042301;28;20679;-77
2023/01/09 13:16:45;;;;;;;0.10;0.10;;;6.90;99.90;;;;;;5042742;28;20040;-76
2023/01/09 13:19:20;;;;;;;0.10;0.10;;;7.20;99.90;;;;;;5039354;28;20881;-76
2023/01/09 13:21:46;;;;;;;0.15;0.15;;;7.40;99.90;;;;;;5043632;28;20105;-76
2023/01/09 13:24:24;;;;;;;0.30;0.30;;;7.40;99.90;;;;;;5043262;28;20068;-77
2023/01/09 13:26:58;;;;;;;0.40;0.40;;;7.50;99.90;;;;;;5040471;28;20111;-76
2023/01/09 13:29:36;;;;;;;0.70;0.70;;;7.50;99.90;;;;;;5036108;28;20033;-77
2023/01/09 13:32:24;;;;;;;0.20;0.20;;;7.50;99.90;;;;;;5042042;28;20088;-78